createdAt,value
2017-04-20T00:00:39.253Z,102507.20
2017-04-20T00:01:41.062Z,102504.55
2017-04-20T00:02:42.022Z,102514.61
2017-04-20T00:03:42.182Z,102510.61
2017-04-20T00:04:42.325Z,102516.61
2017-04-20T00:05:42.446Z,102513.95
2017-04-20T00:06:42.661Z,102517.64
2017-04-20T00:07:42.839Z,102514.55
2017-04-20T00:08:43.347Z,102510.57
2017-04-20T00:09:43.487Z,102516.09
2017-04-20T00:10:43.596Z,102510.30
2017-04-20T00:11:43.720Z,102514.90
2017-04-20T00:12:43.834Z,102515.87
2017-04-20T00:13:44.017Z,102520.03
2017-04-20T00:14:44.171Z,102519.66
2017-04-20T00:15:44.299Z,102525.13
2017-04-20T00:16:44.430Z,102520.68
2017-04-20T00:17:44.542Z,102518.94
2017-04-20T00:18:44.751Z,102522.66
2017-04-20T00:19:44.907Z,102524.98
2017-04-20T00:20:45.086Z,102520.97
2017-04-20T00:21:45.357Z,102525.57
2017-04-20T00:22:45.474Z,102522.05
2017-04-20T00:23:45.632Z,102519.88
2017-04-20T00:24:45.844Z,102519.98
2017-04-20T00:25:45.965Z,102521.87
2017-04-20T00:26:46.079Z,102521.48
2017-04-20T00:27:46.230Z,102519.89
2017-04-20T00:28:46.350Z,102516.80
2017-04-20T00:29:47.231Z,102518.64
2017-04-20T00:30:47.374Z,102513.72
2017-04-20T00:31:47.501Z,102514.25
2017-04-20T00:32:47.650Z,102512.03
2017-04-20T00:33:47.770Z,102511.66
2017-04-20T00:34:47.970Z,102513.05
2017-04-20T00:35:48.098Z,102514.45
2017-04-20T00:36:48.210Z,102509.10
2017-04-20T00:37:48.346Z,102512.78
2017-04-20T00:38:48.467Z,102510.61
2017-04-20T00:39:48.622Z,102515.29
2017-04-20T00:40:48.740Z,102511.33
2017-04-20T00:41:48.865Z,102513.22
2017-04-20T00:42:48.990Z,102520.58
2017-04-20T00:43:49.126Z,102513.53
2017-04-20T00:44:49.270Z,102516.88
2017-04-20T00:45:49.373Z,102517.01
2017-04-20T00:46:49.506Z,102513.59
2017-04-20T00:47:49.611Z,102511.91
2017-04-20T00:48:49.718Z,102513.89
2017-04-20T00:49:49.853Z,102512.27
2017-04-20T00:50:49.969Z,102512.06
2017-04-20T00:51:50.093Z,102508.54
2017-04-20T00:52:50.257Z,102511.88
2017-04-20T00:53:50.379Z,102507.11
2017-04-20T00:54:50.519Z,102508.61
2017-04-20T00:55:50.661Z,102506.58
2017-04-20T00:56:50.798Z,102506.30
2017-04-20T00:57:50.910Z,102502.83
2017-04-20T00:58:51.052Z,102502.06
2017-04-20T00:59:51.202Z,102503.51
2017-04-20T01:00:51.361Z,102499.64
2017-04-20T01:01:51.610Z,102495.68
2017-04-20T01:02:51.757Z,102500.70
2017-04-20T01:03:51.918Z,102499.50
2017-04-20T01:04:52.062Z,102495.11
2017-04-20T01:05:52.561Z,102501.48
2017-04-20T01:06:52.689Z,102503.27
2017-04-20T01:07:52.819Z,102498.94
2017-04-20T01:08:52.957Z,102498.58
2017-04-20T01:09:53.125Z,102494.14
2017-04-20T01:10:53.253Z,102492.89
2017-04-20T01:11:53.411Z,102488.89
2017-04-20T01:12:53.526Z,102489.42
2017-04-20T01:13:53.669Z,102485.85
2017-04-20T01:14:53.832Z,102486.77
2017-04-20T01:15:53.994Z,102483.68
2017-04-20T01:16:54.122Z,102488.27
2017-04-20T01:17:55.011Z,102486.97
2017-04-20T01:18:55.148Z,102488.42
2017-04-20T01:19:55.357Z,102485.72
2017-04-20T01:20:55.518Z,102488.55
2017-04-20T01:21:55.642Z,102487.25
2017-04-20T01:22:55.759Z,102497.23
2017-04-20T01:23:55.918Z,102497.72
2017-04-20T01:24:56.070Z,102502.21
2017-04-20T01:25:57.167Z,102501.73
2017-04-20T01:26:57.307Z,102492.37
2017-04-20T01:27:57.430Z,102500.96
2017-04-20T01:28:57.570Z,102500.05
2017-04-20T01:29:57.850Z,102494.25
2017-04-20T01:30:57.970Z,102496.13
2017-04-20T01:31:58.143Z,102486.67
2017-04-20T01:32:58.266Z,102491.21
2017-04-20T01:33:58.381Z,102487.21
2017-04-20T01:34:58.530Z,102489.05
2017-04-20T01:35:58.651Z,102495.36
2017-04-20T01:36:58.763Z,102487.26
2017-04-20T01:37:58.897Z,102490.45
2017-04-20T01:38:59.029Z,102488.66
2017-04-20T01:39:59.226Z,102491.80
2017-04-20T01:40:59.366Z,102490.45
2017-04-20T01:41:59.490Z,102484.61
2017-04-20T01:42:59.613Z,102486.88
2017-04-20T01:43:59.742Z,102483.73
2017-04-20T01:44:59.126Z,102486.05
2017-04-20T01:45:59.303Z,102483.84
2017-04-20T01:46:59.446Z,102483.84
2017-04-20T01:47:59.562Z,102490.19
2017-04-20T01:49:00.431Z,102491.16
2017-04-20T01:50:00.577Z,102485.80
2017-04-20T01:51:00.726Z,102488.98
2017-04-20T01:52:00.884Z,102481.80
2017-04-20T01:53:01.021Z,102486.87
2017-04-20T01:54:01.135Z,102484.16
2017-04-20T01:55:02.014Z,102488.22
2017-04-20T01:56:02.166Z,102485.56
2017-04-20T01:57:02.279Z,102483.83
2017-04-20T01:58:02.428Z,102491.06
2017-04-20T01:59:02.567Z,102491.06
2017-04-20T02:00:02.689Z,102484.84
2017-04-20T02:01:02.834Z,102493.34
2017-04-20T02:02:02.996Z,102489.72
2017-04-20T02:03:03.138Z,102491.41
2017-04-20T02:04:04.010Z,102489.03
2017-04-20T02:05:04.122Z,102492.94
2017-04-20T02:06:04.230Z,102486.05
2017-04-20T02:07:04.354Z,102481.47
2017-04-20T02:08:04.486Z,102484.55
2017-04-20T02:09:05.062Z,102484.89
2017-04-20T02:10:05.230Z,102482.52
2017-04-20T02:11:05.386Z,102486.05
2017-04-20T02:12:05.553Z,102479.19
2017-04-20T02:13:05.739Z,102480.44
2017-04-20T02:14:05.899Z,102483.45
2017-04-20T02:15:06.014Z,102491.02
2017-04-20T02:16:06.130Z,102488.66
2017-04-20T02:17:06.294Z,102489.47
2017-04-20T02:18:06.409Z,102495.70
2017-04-20T02:19:06.519Z,102498.78
2017-04-20T02:20:06.638Z,102496.90
2017-04-20T02:21:07.498Z,102502.25
2017-04-20T02:22:07.662Z,102497.23
2017-04-20T02:23:07.790Z,102500.28
2017-04-20T02:24:08.660Z,102491.78
2017-04-20T02:25:08.854Z,102501.16
2017-04-20T02:26:08.983Z,102498.73
2017-04-20T02:27:09.130Z,102488.84
2017-04-20T02:28:09.260Z,102496.03
2017-04-20T02:29:10.134Z,102488.36
2017-04-20T02:30:10.355Z,102490.58
2017-04-20T02:31:10.509Z,102490.14
2017-04-20T02:32:10.697Z,102492.31
2017-04-20T02:33:10.898Z,102493.23
2017-04-20T02:34:11.430Z,102489.61
2017-04-20T02:35:11.554Z,102488.64
2017-04-20T02:36:11.667Z,102489.12
2017-04-20T02:37:11.835Z,102489.07
2017-04-20T02:38:11.983Z,102485.94
2017-04-20T02:39:12.099Z,102492.64
2017-04-20T02:40:12.953Z,102493.08
2017-04-20T02:41:13.074Z,102489.51
2017-04-20T02:42:13.254Z,102493.08
2017-04-20T02:43:14.136Z,102493.89
2017-04-20T02:44:14.270Z,102498.77
2017-04-20T02:45:14.447Z,102496.59
2017-04-20T02:46:14.577Z,102499.69
2017-04-20T02:47:14.722Z,102490.70
2017-04-20T02:48:15.602Z,102493.80
2017-04-20T02:49:15.730Z,102499.64
2017-04-20T02:50:15.865Z,102496.94
2017-04-20T02:51:16.755Z,102495.58
2017-04-20T02:52:17.639Z,102505.05
2017-04-20T02:53:17.763Z,102503.69
2017-04-20T02:54:17.908Z,102507.31
2017-04-20T02:55:18.018Z,102503.69
2017-04-20T02:56:18.134Z,102503.74
2017-04-20T02:57:18.266Z,102500.61
2017-04-20T02:58:18.424Z,102505.58
2017-04-20T02:59:18.572Z,102506.93
2017-04-20T03:00:18.775Z,102495.25
2017-04-20T03:01:19.006Z,102499.30
2017-04-20T03:02:19.158Z,102499.79
2017-04-20T03:03:19.313Z,102497.52
2017-04-20T03:04:19.442Z,102502.92
2017-04-20T03:05:20.356Z,102507.47
2017-04-20T03:06:20.478Z,102505.67
2017-04-20T03:07:20.650Z,102507.95
2017-04-20T03:08:20.830Z,102504.37
2017-04-20T03:09:20.966Z,102506.64
2017-04-20T03:10:21.104Z,102504.81
2017-04-20T03:11:21.223Z,102501.23
2017-04-20T03:12:21.366Z,102508.43
2017-04-20T03:13:21.528Z,102506.64
2017-04-20T03:14:21.708Z,102512.53
2017-04-20T03:15:21.848Z,102512.48
2017-04-20T03:16:21.982Z,102511.63
2017-04-20T03:17:22.151Z,102512.92
2017-04-20T03:18:23.295Z,102513.84
2017-04-20T03:19:23.950Z,102516.55
2017-04-20T03:20:25.811Z,102513.84
2017-04-20T03:21:26.911Z,102512.48
2017-04-20T03:22:27.495Z,102517.89
2017-04-20T03:23:28.222Z,102518.77
2017-04-20T03:24:29.479Z,102509.78
2017-04-20T03:25:30.322Z,102516.55
2017-04-20T03:26:30.367Z,102518.81
2017-04-20T03:27:31.757Z,102519.68
2017-04-20T03:28:32.243Z,102520.64
2017-04-20T03:29:32.943Z,102518.43
2017-04-20T03:30:33.768Z,102526.54
2017-04-20T03:31:34.415Z,102520.70
2017-04-20T03:32:35.754Z,102519.39
2017-04-20T03:33:37.056Z,102525.67
2017-04-20T03:34:38.357Z,102517.08
2017-04-20T03:35:40.177Z,102514.86
2017-04-20T03:36:41.211Z,102513.50
2017-04-20T03:37:42.306Z,102516.20
2017-04-20T03:38:43.798Z,102517.13
2017-04-20T03:39:44.982Z,102509.94
2017-04-20T03:40:45.887Z,102508.58
2017-04-20T03:41:47.220Z,102510.37
2017-04-20T03:42:48.694Z,102513.07
2017-04-20T03:43:49.523Z,102503.66
2017-04-20T03:44:51.421Z,102504.58
2017-04-20T03:45:53.486Z,102505.49
2017-04-20T03:46:55.843Z,102510.47
2017-04-20T03:47:56.395Z,102509.12
2017-04-20T03:48:57.668Z,102510.52
2017-04-20T03:49:58.945Z,102507.42
2017-04-20T03:51:01.224Z,102509.21
2017-04-20T03:52:02.237Z,102514.67
2017-04-20T03:53:03.704Z,102506.56
2017-04-20T03:54:05.027Z,102509.27
2017-04-20T03:55:06.387Z,102510.70
2017-04-20T03:56:07.518Z,102514.80
2017-04-20T03:57:08.464Z,102511.72
2017-04-20T03:58:09.579Z,102505.92
2017-04-20T03:59:11.099Z,102506.89
2017-04-20T04:00:12.171Z,102509.21
2017-04-20T04:01:13.281Z,102514.28
2017-04-20T04:02:15.523Z,102518.87
2017-04-20T04:03:17.495Z,102514.91
2017-04-20T04:04:19.939Z,102521.77
2017-04-20T04:05:20.302Z,102520.50
2017-04-20T04:06:21.595Z,102521.95
2017-04-20T04:07:22.319Z,102528.32
2017-04-20T04:08:23.107Z,102523.94
2017-04-20T04:09:24.707Z,102528.09
2017-04-20T04:10:25.554Z,102530.45
2017-04-20T04:11:27.467Z,102535.47
2017-04-20T04:12:32.387Z,102525.67
2017-04-20T04:13:35.920Z,102533.96
2017-04-20T04:14:37.819Z,102537.30
2017-04-20T04:15:39.899Z,102539.27
2017-04-20T04:16:43.535Z,102539.03
2017-04-20T04:17:45.835Z,102540.99
2017-04-20T04:18:48.407Z,102545.67
2017-04-20T04:19:51.970Z,102552.62
2017-04-20T04:20:54.333Z,102546.97
2017-04-20T04:21:58.580Z,102544.45
2017-04-20T04:23:01.340Z,102549.13
2017-04-20T04:24:05.023Z,102547.97
2017-04-20T04:25:07.751Z,102548.11
2017-04-20T04:26:09.246Z,102548.73
2017-04-20T04:27:10.554Z,102553.44
2017-04-20T04:28:12.497Z,102545.38
2017-04-20T04:29:15.083Z,102544.22
2017-04-20T04:30:17.547Z,102548.41
2017-04-20T04:31:18.499Z,102557.05
2017-04-20T04:32:20.187Z,102543.72
2017-04-20T04:33:23.389Z,102550.56
2017-04-20T04:34:25.325Z,102549.74
2017-04-20T04:35:27.516Z,102545.30
2017-04-20T04:36:30.266Z,102546.80
2017-04-20T04:37:32.815Z,102549.06
2017-04-20T04:38:35.139Z,102545.10
2017-04-20T04:39:37.168Z,102543.84
2017-04-20T04:40:38.744Z,102548.37
2017-04-20T04:41:45.686Z,102550.28
2017-04-20T04:42:49.210Z,102543.62
2017-04-20T04:43:53.571Z,102544.16
2017-04-20T04:44:55.875Z,102547.43
2017-04-20T04:46:01.008Z,102550.56
2017-04-20T04:47:06.075Z,102548.44
2017-04-20T04:48:09.851Z,102551.63
2017-04-20T04:49:13.252Z,102553.89
2017-04-20T04:50:19.234Z,102545.88
2017-04-20T04:51:24.187Z,102547.71
2017-04-20T04:52:28.916Z,102549.11
2017-04-20T04:53:31.159Z,102549.59
2017-04-20T04:54:33.857Z,102550.94
2017-04-20T04:55:35.947Z,102552.37
2017-04-20T04:56:41.777Z,102552.41
2017-04-20T04:57:44.747Z,102555.98
2017-04-20T04:58:46.739Z,102554.67
2017-04-20T04:59:48.712Z,102555.20
2017-04-20T05:00:49.943Z,102549.33
2017-04-20T05:01:53.220Z,102547.11
2017-04-20T05:02:57.170Z,102549.80
2017-04-20T05:03:59.853Z,102549.33
2017-04-20T05:05:01.840Z,102553.81
2017-04-20T05:06:04.864Z,102551.98
2017-04-20T05:07:08.539Z,102549.77
2017-04-20T05:08:13.963Z,102551.50
2017-04-20T05:09:18.654Z,102555.98
2017-04-20T05:10:20.591Z,102545.62
2017-04-20T05:11:21.494Z,102543.23
2017-04-20T05:12:22.739Z,102545.40
2017-04-20T05:13:23.781Z,102545.26
2017-04-20T05:14:24.891Z,102546.47
2017-04-20T05:15:26.019Z,102550.38
2017-04-20T05:16:28.163Z,102549.30
2017-04-20T05:17:29.301Z,102552.33
2017-04-20T05:18:30.994Z,102548.63
2017-04-20T05:19:32.442Z,102548.97
2017-04-20T05:20:35.535Z,102555.58
2017-04-20T05:21:37.495Z,102554.56
2017-04-20T05:22:38.867Z,102557.96
2017-04-20T05:23:40.568Z,102554.73
2017-04-20T05:24:41.582Z,102563.61
2017-04-20T05:25:42.873Z,102560.81
2017-04-20T05:26:43.759Z,102561.11
2017-04-20T05:27:44.804Z,102554.21
2017-04-20T05:28:46.992Z,102554.52
2017-04-20T05:29:48.135Z,102555.30
2017-04-20T05:30:49.208Z,102561.47
2017-04-20T05:31:50.351Z,102556.36
2017-04-20T05:32:51.116Z,102551.34
2017-04-20T05:33:53.105Z,102559.30
2017-04-20T05:34:53.956Z,102554.20
2017-04-20T05:35:55.607Z,102554.59
2017-04-20T05:36:56.273Z,102551.27
2017-04-20T05:37:58.246Z,102556.58
2017-04-20T05:38:59.446Z,102557.83
2017-04-20T05:40:00.622Z,102558.17
2017-04-20T05:41:01.875Z,102571.98
2017-04-20T05:42:02.755Z,102564.65
2017-04-20T05:43:03.435Z,102565.03
2017-04-20T05:44:04.608Z,102573.91
2017-04-20T05:45:05.579Z,102565.66
2017-04-20T05:46:06.935Z,102569.14
2017-04-20T05:47:08.514Z,102568.96
2017-04-20T05:48:09.439Z,102567.52
2017-04-20T05:49:10.559Z,102571.47
2017-04-20T05:50:11.258Z,102570.89
2017-04-20T05:51:11.742Z,102570.80
2017-04-20T05:52:12.634Z,102576.54
2017-04-20T05:53:13.021Z,102573.69
2017-04-20T05:54:13.995Z,102568.59
2017-04-20T05:55:20.530Z,102572.55
2017-04-20T05:56:20.934Z,102573.27
2017-04-20T05:57:21.650Z,102574.91
2017-04-20T05:58:22.237Z,102583.35
2017-04-20T05:59:22.824Z,102576.84
2017-04-20T06:00:22.958Z,102577.62
2017-04-20T06:01:23.079Z,102569.36
2017-04-20T06:02:23.221Z,102570.13
2017-04-20T06:03:23.354Z,102572.69
2017-04-20T06:04:23.546Z,102572.11
2017-04-20T06:05:23.673Z,102572.36
2017-04-20T06:06:24.530Z,102574.91
2017-04-20T06:07:24.666Z,102578.39
2017-04-20T06:08:24.803Z,102576.89
2017-04-20T06:09:24.938Z,102573.47
2017-04-20T06:10:27.331Z,102571.15
2017-04-20T06:11:27.714Z,102574.57
2017-04-20T06:12:28.390Z,102579.45
2017-04-20T06:13:29.044Z,102572.97
2017-04-20T06:14:29.465Z,102573.30
2017-04-20T06:15:29.598Z,102579.83
2017-04-20T06:16:30.507Z,102574.76
2017-04-20T06:17:30.825Z,102577.31
2017-04-20T06:18:31.217Z,102581.22
2017-04-20T06:19:31.854Z,102575.70
2017-04-20T06:20:33.271Z,102580.84
2017-04-20T06:21:33.450Z,102578.41
2017-04-20T06:22:33.587Z,102578.74
2017-04-20T06:23:33.722Z,102572.75
2017-04-20T06:24:33.861Z,102575.73
2017-04-20T06:25:34.010Z,102575.50
2017-04-20T06:26:34.147Z,102574.81
2017-04-20T06:27:34.302Z,102577.75
2017-04-20T06:28:34.438Z,102579.30
2017-04-20T06:29:35.522Z,102575.47
2017-04-20T06:30:35.658Z,102583.81
2017-04-20T06:31:35.801Z,102586.67
2017-04-20T06:32:35.945Z,102585.55
2017-04-20T06:33:36.063Z,102583.94
2017-04-20T06:34:36.222Z,102590.92
2017-04-20T06:35:36.342Z,102584.30
2017-04-20T06:36:36.539Z,102584.42
2017-04-20T06:37:36.698Z,102582.86
2017-04-20T06:38:36.809Z,102584.79
2017-04-20T06:39:36.940Z,102592.22
2017-04-20T06:40:37.063Z,102594.23
2017-04-20T06:41:37.227Z,102589.87
2017-04-20T06:42:38.140Z,102590.48
2017-04-20T06:43:59.982Z,102588.77
2017-04-20T06:45:00.105Z,102587.59
2017-04-20T06:46:00.238Z,102589.60
2017-04-20T06:47:00.367Z,102596.16
2017-04-20T06:48:01.267Z,102597.66
2017-04-20T06:49:01.431Z,102594.73
2017-04-20T06:50:02.314Z,102596.73
2017-04-20T06:51:02.564Z,102600.50
2017-04-20T06:52:02.739Z,102604.30
2017-04-20T06:53:02.939Z,102605.83
2017-04-20T06:54:03.151Z,102606.39
2017-04-20T06:55:03.365Z,102608.39
2017-04-20T06:56:03.550Z,102599.13
2017-04-20T06:57:03.717Z,102602.40
2017-04-20T06:58:03.957Z,102599.36
2017-04-20T06:59:04.657Z,102596.81
2017-04-20T07:00:05.900Z,102595.05
2017-04-20T07:01:06.860Z,102600.08
2017-04-20T07:02:07.465Z,102598.85
2017-04-20T07:03:08.185Z,102599.83
2017-04-20T07:04:09.843Z,102595.02
2017-04-20T07:05:10.766Z,102600.59
2017-04-20T07:06:11.782Z,102600.38
2017-04-20T07:07:11.960Z,102598.73
2017-04-20T07:08:13.118Z,102597.07
2017-04-20T07:09:13.678Z,102598.15
2017-04-20T07:10:14.784Z,102597.87
2017-04-20T07:11:14.942Z,102599.72
2017-04-20T07:12:15.398Z,102602.53
2017-04-20T07:13:15.663Z,102599.02
2017-04-20T07:14:15.974Z,102605.89
2017-04-20T07:15:16.400Z,102606.27
2017-04-20T07:16:16.706Z,102606.31
2017-04-20T07:17:17.059Z,102609.58
2017-04-20T07:18:17.915Z,102609.67
2017-04-20T07:19:18.246Z,102608.40
2017-04-20T07:20:18.505Z,102599.94
2017-04-20T07:21:18.667Z,102609.15
2017-04-20T07:22:19.589Z,102602.02
2017-04-20T07:23:20.513Z,102603.98
2017-04-20T07:24:20.775Z,102609.67
2017-04-20T07:25:21.033Z,102608.95
2017-04-20T07:26:21.294Z,102605.91
2017-04-20T07:27:21.514Z,102605.18
2017-04-20T07:28:21.757Z,102604.39
2017-04-20T07:29:21.990Z,102608.58
2017-04-20T07:30:23.058Z,102603.78
2017-04-20T07:31:23.428Z,102600.33
2017-04-20T07:32:23.662Z,102602.23
2017-04-20T07:33:23.915Z,102603.35
2017-04-20T07:34:24.129Z,102597.13
2017-04-20T07:35:24.874Z,102604.95
2017-04-20T07:36:25.023Z,102605.15
2017-04-20T07:37:25.170Z,102606.21
2017-04-20T07:38:25.426Z,102608.20
2017-04-20T07:39:25.629Z,102607.44
2017-04-20T07:40:25.833Z,102606.21
2017-04-20T07:41:25.936Z,102603.69
2017-04-20T07:42:26.074Z,102602.48
2017-04-20T07:43:26.276Z,102604.03
2017-04-20T07:44:26.474Z,102607.01
2017-04-20T07:45:26.654Z,102604.05
2017-04-20T07:46:27.774Z,102608.28
2017-04-20T07:47:28.842Z,102605.27
2017-04-20T07:48:31.063Z,102603.72
2017-04-20T07:49:31.202Z,102599.80
2017-04-20T07:50:31.399Z,102593.63
2017-04-20T07:51:32.485Z,102597.89
2017-04-20T07:52:32.614Z,102600.36
2017-04-20T07:53:32.873Z,102600.45
2017-04-20T07:54:33.035Z,102597.43
2017-04-20T07:55:33.186Z,102590.81
2017-04-20T07:56:33.509Z,102599.87
2017-04-20T07:57:34.106Z,102592.70
2017-04-20T07:58:34.257Z,102597.24
2017-04-20T07:59:34.486Z,102592.66
2017-04-20T08:00:34.680Z,102599.00
2017-04-20T08:01:34.810Z,102602.15
2017-04-20T08:02:35.697Z,102596.67
2017-04-20T08:03:35.846Z,102593.56
2017-04-20T08:04:36.089Z,102590.90
2017-04-20T08:05:36.270Z,102587.77
2017-04-20T08:06:36.461Z,102595.13
2017-04-20T08:07:37.657Z,102590.69
2017-04-20T08:08:37.826Z,102589.44
2017-04-20T08:09:37.935Z,102592.77
2017-04-20T08:10:38.830Z,102591.95
2017-04-20T08:11:38.977Z,102588.48
2017-04-20T08:12:39.206Z,102586.42
2017-04-20T08:13:39.354Z,102589.66
2017-04-20T08:14:39.542Z,102592.93
2017-04-20T08:15:40.406Z,102588.16
2017-04-20T08:16:40.526Z,102587.39
2017-04-20T08:17:40.757Z,102592.92
2017-04-20T08:18:40.902Z,102585.35
2017-04-20T08:19:41.035Z,102584.09
2017-04-20T08:20:41.157Z,102581.38
2017-04-20T08:21:41.281Z,102590.53
2017-04-20T08:22:41.412Z,102596.05
2017-04-20T08:23:42.294Z,102589.77
2017-04-20T08:24:42.410Z,102590.31
2017-04-20T08:25:42.546Z,102591.81
2017-04-20T08:26:43.074Z,102595.08
2017-04-20T08:27:43.310Z,102600.27
2017-04-20T08:28:43.830Z,102592.88
2017-04-20T08:29:43.953Z,102600.70
2017-04-20T08:30:44.095Z,102598.20
2017-04-20T08:31:45.098Z,102601.59
2017-04-20T08:32:45.218Z,102598.08
2017-04-20T08:33:45.390Z,102598.31
2017-04-20T08:34:45.534Z,102600.70
2017-04-20T08:35:45.719Z,102596.34
2017-04-20T08:36:45.843Z,102596.84
2017-04-20T08:37:46.024Z,102606.48
2017-04-20T08:38:46.297Z,102604.79
2017-04-20T08:39:46.440Z,102605.15
2017-04-20T08:40:46.827Z,102602.38
2017-04-20T08:41:47.235Z,102604.24
2017-04-20T08:42:47.353Z,102597.02
2017-04-20T08:43:47.502Z,102604.43
2017-04-20T08:44:48.367Z,102599.96
2017-04-20T08:45:48.522Z,102598.78
2017-04-20T08:46:48.654Z,102597.13
2017-04-20T08:47:48.805Z,102591.74
2017-04-20T08:48:48.938Z,102594.98
2017-04-20T08:49:49.090Z,102595.91
2017-04-20T08:50:49.966Z,102590.98
2017-04-20T08:51:50.107Z,102590.47
2017-04-20T08:52:50.516Z,102589.73
2017-04-20T08:53:51.874Z,102588.00
2017-04-20T08:54:52.039Z,102595.09
2017-04-20T08:55:52.193Z,102586.00
2017-04-20T08:56:52.312Z,102581.72
2017-04-20T08:57:52.458Z,102587.86
2017-04-20T08:58:52.597Z,102584.97
2017-04-20T08:59:52.718Z,102585.90
2017-04-20T09:00:52.858Z,102581.61
2017-04-20T09:01:52.995Z,102598.62
2017-04-20T09:02:53.115Z,102594.90
2017-04-20T09:03:53.462Z,102581.46
2017-04-20T09:04:53.600Z,102584.88
2017-04-20T09:05:53.737Z,102586.16
2017-04-20T09:06:53.878Z,102595.07
2017-04-20T09:07:54.005Z,102595.78
2017-04-20T09:08:54.162Z,102588.28
2017-04-20T09:09:54.295Z,102584.92
2017-04-20T09:10:55.182Z,102589.23
2017-04-20T09:11:55.319Z,102589.88
2017-04-20T09:12:55.474Z,102581.06
2017-04-20T09:13:55.641Z,102590.64
2017-04-20T09:14:55.797Z,102580.73
2017-04-20T09:15:55.940Z,102588.63
2017-04-20T09:16:56.107Z,102588.72
2017-04-20T09:17:56.253Z,102589.75
2017-04-20T09:18:56.427Z,102591.20
2017-04-20T09:19:56.581Z,102579.48
2017-04-20T09:20:56.710Z,102585.39
2017-04-20T09:21:56.857Z,102576.75
2017-04-20T09:22:56.982Z,102580.24
2017-04-20T09:23:57.163Z,102583.38
2017-04-20T09:24:57.302Z,102582.82
2017-04-20T09:25:57.430Z,102583.56
2017-04-20T09:26:57.594Z,102583.52
2017-04-20T09:27:57.757Z,102581.64
2017-04-20T09:28:57.901Z,102576.67
2017-04-20T09:29:58.025Z,102578.85
2017-04-20T09:30:58.180Z,102588.42
2017-04-20T09:31:58.298Z,102582.30
2017-04-20T09:32:58.425Z,102575.56
2017-04-20T09:33:58.577Z,102578.83
2017-04-20T09:34:58.719Z,102571.75
2017-04-20T09:35:58.883Z,102572.74
2017-04-20T09:36:59.030Z,102570.17
2017-04-20T09:37:59.157Z,102575.39
2017-04-20T09:38:59.322Z,102578.52
2017-04-20T09:39:59.459Z,102573.39
2017-04-20T09:41:00.333Z,102575.76
2017-04-20T09:42:00.458Z,102576.64
2017-04-20T09:43:00.629Z,102573.17
2017-04-20T09:44:00.794Z,102572.75
2017-04-20T09:45:00.930Z,102573.55
2017-04-20T09:46:01.044Z,102577.31
2017-04-20T09:47:01.905Z,102578.27
2017-04-20T09:48:02.033Z,102576.89
2017-04-20T09:49:02.193Z,102571.45
2017-04-20T09:50:03.081Z,102573.83
2017-04-20T09:51:03.223Z,102572.87
2017-04-20T09:52:03.563Z,102573.52
2017-04-20T09:53:03.747Z,102574.03
2017-04-20T09:54:03.887Z,102570.54
2017-04-20T09:55:04.031Z,102570.48
2017-04-20T09:56:04.195Z,102565.36
2017-04-20T09:57:04.329Z,102561.52
2017-04-20T09:58:04.469Z,102553.30
2017-04-20T09:59:04.634Z,102566.77
2017-04-20T10:00:04.769Z,102554.22
2017-04-20T10:01:04.898Z,102555.29
2017-04-20T10:02:05.059Z,102552.19
2017-04-20T10:03:05.198Z,102560.66
2017-04-20T10:04:05.349Z,102559.28
2017-04-20T10:05:05.485Z,102566.40
2017-04-20T10:06:05.613Z,102565.81
2017-04-20T10:07:06.489Z,102560.57
2017-04-20T10:08:06.610Z,102561.70
2017-04-20T10:09:07.154Z,102551.80
2017-04-20T10:10:07.302Z,102552.80
2017-04-20T10:11:07.449Z,102553.08
2017-04-20T10:12:07.609Z,102555.63
2017-04-20T10:13:07.742Z,102552.34
2017-04-20T10:14:08.661Z,102552.25
2017-04-20T10:15:08.823Z,102555.87
2017-04-20T10:16:09.717Z,102546.78
2017-04-20T10:17:09.850Z,102546.02
2017-04-20T10:18:09.977Z,102550.44
2017-04-20T10:19:10.133Z,102548.97
2017-04-20T10:20:10.271Z,102549.39
2017-04-20T10:21:10.402Z,102547.34
2017-04-20T10:22:10.546Z,102546.48
2017-04-20T10:23:10.684Z,102548.47
2017-04-20T10:24:10.830Z,102545.13
2017-04-20T10:25:10.942Z,102544.69
2017-04-20T10:26:11.086Z,102540.46
2017-04-20T10:27:11.218Z,102546.41
2017-04-20T10:28:11.348Z,102552.42
2017-04-20T10:29:11.501Z,102544.94
2017-04-20T10:30:11.633Z,102540.34
2017-04-20T10:31:11.806Z,102548.37
2017-04-20T10:32:12.698Z,102543.98
2017-04-20T10:33:12.853Z,102547.11
2017-04-20T10:34:13.097Z,102544.62
2017-04-20T10:35:13.230Z,102545.56
2017-04-20T10:36:13.366Z,102545.23
2017-04-20T10:37:13.502Z,102545.78
2017-04-20T10:38:13.629Z,102541.21
2017-04-20T10:39:13.890Z,102535.57
2017-04-20T10:40:14.462Z,102538.92
2017-04-20T10:41:14.586Z,102534.01
2017-04-20T10:42:14.738Z,102533.58
2017-04-20T10:43:14.868Z,102531.25
2017-04-20T10:44:15.006Z,102529.69
2017-04-20T10:45:15.175Z,102530.98
2017-04-20T10:46:16.053Z,102533.58
2017-04-20T10:47:16.194Z,102531.34
2017-04-20T10:48:16.317Z,102533.06
2017-04-20T10:49:16.466Z,102525.83
2017-04-20T10:50:16.595Z,102530.02
2017-04-20T10:51:16.730Z,102524.68
2017-04-20T10:52:16.858Z,102524.68
2017-04-20T10:53:16.994Z,102524.16
2017-04-20T10:54:17.150Z,102529.23
2017-04-20T10:55:18.021Z,102528.24
2017-04-20T10:56:18.171Z,102531.43
2017-04-20T10:57:18.305Z,102521.07
2017-04-20T10:58:18.429Z,102527.27
2017-04-20T10:59:18.569Z,102528.06
2017-04-20T11:00:18.728Z,102524.95
2017-04-20T11:01:19.669Z,102523.03
2017-04-20T11:02:19.817Z,102524.07
2017-04-20T11:03:20.190Z,102521.83
2017-04-20T11:04:20.333Z,102522.38
2017-04-20T11:05:20.462Z,102525.13
2017-04-20T11:06:20.633Z,102522.89
2017-04-20T11:07:20.770Z,102522.56
2017-04-20T11:08:20.919Z,102512.38
2017-04-20T11:09:21.070Z,102512.99
2017-04-20T11:10:21.266Z,102509.88
2017-04-20T11:11:21.473Z,102511.00
2017-04-20T11:12:21.615Z,102504.87
2017-04-20T11:13:22.498Z,102502.88
2017-04-20T11:14:22.674Z,102502.45
2017-04-20T11:15:22.825Z,102504.17
2017-04-20T11:16:22.955Z,102509.17
2017-04-20T11:17:23.855Z,102506.50
2017-04-20T11:18:23.991Z,102503.28
2017-04-20T11:19:24.142Z,102504.17
2017-04-20T11:20:24.257Z,102504.42
2017-04-20T11:21:24.458Z,102505.88
2017-04-20T11:22:24.593Z,102512.31
2017-04-20T11:23:24.734Z,102504.49
2017-04-20T11:24:24.895Z,102489.90
2017-04-20T11:25:25.245Z,102488.00
2017-04-20T11:26:25.375Z,102491.86
2017-04-20T11:27:25.514Z,102487.05
2017-04-20T11:28:25.665Z,102487.69
2017-04-20T11:29:25.837Z,102487.01
2017-04-20T11:30:25.981Z,102484.22
2017-04-20T11:31:26.114Z,102482.27
2017-04-20T11:32:26.243Z,102488.87